createdAt,value
2022-09-10T08:02:22.753Z,16524.00
2022-09-10T08:03:01.335Z,16744.00
2022-09-10T08:04:03.042Z,17184.00
2022-09-10T08:05:01.155Z,17536.00
2022-09-10T08:06:02.626Z,17824.00
2022-09-10T08:07:01.105Z,18240.00
2022-09-10T08:08:01.893Z,18432.00
2022-09-10T08:09:01.480Z,18656.00
2022-09-10T08:10:01.193Z,19008.00
2022-09-10T08:11:01.125Z,19328.00
2022-09-10T08:12:01.249Z,19456.00
2022-09-10T08:13:01.120Z,19552.00
2022-09-10T08:14:01.830Z,19584.00
2022-09-10T08:15:01.211Z,19776.00
2022-09-10T08:16:02.502Z,19936.00
2022-09-10T08:17:01.799Z,20096.00
2022-09-10T08:18:00.997Z,20096.00
2022-09-10T08:19:01.030Z,20096.00
2022-09-10T08:20:00.960Z,20032.00
2022-09-10T08:21:00.987Z,19872.00
2022-09-10T08:22:01.831Z,19552.00
2022-09-10T08:23:00.985Z,19392.00
2022-09-10T08:24:00.939Z,19360.00
2022-09-10T08:25:01.803Z,19616.00
2022-09-10T08:26:01.033Z,20096.00
2022-09-10T08:27:00.839Z,20640.00
2022-09-10T08:28:00.880Z,21600.00
2022-09-10T08:29:00.852Z,22336.00
2022-09-10T08:30:01.573Z,23136.00
2022-09-10T08:31:00.921Z,23744.00
2022-09-10T08:32:00.933Z,23968.00
2022-09-10T08:33:00.773Z,24288.00
2022-09-10T08:34:00.831Z,24544.00
2022-09-10T08:35:00.755Z,25088.00
2022-09-10T08:36:00.833Z,25152.00
2022-09-10T08:37:00.748Z,24576.00
2022-09-10T08:38:01.584Z,23552.00
2022-09-10T08:39:04.017Z,22848.00
2022-09-10T08:40:02.471Z,22720.00
2022-09-10T08:41:00.624Z,22528.00
2022-09-10T08:42:01.246Z,22496.00
2022-09-10T08:43:00.727Z,22592.00
2022-09-10T08:44:00.808Z,23232.00
2022-09-10T08:45:00.737Z,24096.00
2022-09-10T08:46:00.821Z,24736.00
2022-09-10T08:47:00.659Z,25024.00
2022-09-10T08:48:00.578Z,24736.00
2022-09-10T08:49:00.580Z,24192.00
2022-09-10T08:50:00.579Z,23776.00
2022-09-10T08:51:00.479Z,23232.00
2022-09-10T08:52:00.698Z,23200.00
2022-09-10T08:53:00.989Z,23552.00
2022-09-10T08:54:00.503Z,24032.00
2022-09-10T08:55:00.439Z,24448.00
2022-09-10T08:56:00.669Z,24768.00
2022-09-10T08:57:00.641Z,24960.00
2022-09-10T08:58:00.667Z,25120.00
2022-09-10T08:59:00.484Z,25280.00
2022-09-10T09:00:00.465Z,25056.00
2022-09-10T09:01:00.403Z,25056.00
2022-09-10T09:02:00.513Z,25312.00
2022-09-10T09:03:00.509Z,25696.00
2022-09-10T09:04:06.046Z,25696.00
2022-09-10T09:05:00.337Z,25792.00
2022-09-10T09:06:00.308Z,25984.00
2022-09-10T09:07:00.434Z,26400.00
2022-09-10T09:08:01.027Z,26208.00
2022-09-10T09:09:00.277Z,25504.00
2022-09-10T09:10:00.448Z,24768.00
2022-09-10T09:11:00.215Z,23904.00
2022-09-10T09:12:00.201Z,23328.00
2022-09-10T09:13:01.028Z,23104.00
2022-09-10T09:14:00.241Z,22912.00
2022-09-10T09:15:00.179Z,22432.00
2022-09-10T09:16:00.225Z,21600.00
2022-09-10T09:17:00.127Z,20320.00
2022-09-10T09:18:00.099Z,19168.00
2022-09-10T09:19:00.108Z,18688.00
2022-09-10T09:20:00.872Z,18656.00
2022-09-10T09:21:00.101Z,18976.00
2022-09-10T09:22:00.151Z,19488.00
2022-09-10T09:23:00.051Z,20064.00
2022-09-10T09:24:13.303Z,20640.00
2022-09-10T09:25:01.061Z,21248.00
2022-09-10T09:26:00.022Z,21984.00
2022-09-10T09:26:59.992Z,22816.00
2022-09-10T09:28:00.034Z,23328.00
2022-09-10T09:28:59.973Z,22912.00
2022-09-10T09:30:00.059Z,21664.00
2022-09-10T09:31:00.152Z,20384.00
2022-09-10T09:32:00.487Z,19200.00
2022-09-10T09:33:00.941Z,18240.00
2022-09-10T09:34:00.808Z,17344.00
2022-09-10T09:35:00.707Z,16176.00
2022-09-10T09:35:59.868Z,14804.00
2022-09-10T09:36:59.926Z,13296.00
2022-09-10T09:38:00.718Z,11804.00
2022-09-10T09:38:59.863Z,10572.00
2022-09-10T09:40:00.625Z,9644.00
2022-09-10T09:40:59.893Z,9032.00
2022-09-10T09:41:59.799Z,8924.00
2022-09-10T09:42:59.801Z,9424.00
2022-09-10T09:43:59.829Z,10340.00
2022-09-10T09:45:00.517Z,11328.00
2022-09-10T09:46:00.023Z,12160.00
2022-09-10T09:46:59.691Z,13144.00
2022-09-10T09:47:59.742Z,14260.00
2022-09-10T09:48:59.914Z,15816.00
2022-09-10T09:50:00.561Z,17664.00
2022-09-10T09:50:59.670Z,20096.00
2022-09-10T09:52:00.613Z,23296.00
2022-09-10T09:52:59.605Z,26688.00
2022-09-10T09:54:34.604Z,29056.00
2022-09-10T09:55:14.178Z,30432.00
2022-09-10T09:56:00.774Z,31072.00
2022-09-10T09:56:59.660Z,31136.00
2022-09-10T09:57:59.564Z,30880.00
2022-09-10T09:58:59.586Z,30560.00
2022-09-10T09:59:59.660Z,30176.00
2022-09-10T10:01:00.012Z,29632.00
2022-09-10T10:01:59.646Z,28896.00
2022-09-10T10:02:59.586Z,28160.00
2022-09-10T10:03:59.532Z,27360.00
2022-09-10T10:04:59.506Z,26496.00
2022-09-10T10:05:59.469Z,25568.00
2022-09-10T10:06:59.427Z,24704.00
2022-09-10T10:07:59.409Z,23712.00
2022-09-10T10:08:59.491Z,22176.00
2022-09-10T10:09:59.653Z,21088.00
2022-09-10T10:10:59.380Z,20608.00
2022-09-10T10:12:00.260Z,20544.00
2022-09-10T10:13:00.434Z,20512.00
2022-09-10T10:14:00.348Z,20448.00
2022-09-10T10:15:01.126Z,20576.00
2022-09-10T10:15:59.487Z,20384.00
2022-09-10T10:17:00.885Z,20032.00
2022-09-10T10:17:59.275Z,19520.00
2022-09-10T10:18:59.273Z,18656.00
2022-09-10T10:19:59.272Z,17472.00
2022-09-10T10:20:59.274Z,16288.00
2022-09-10T10:21:59.274Z,15940.00
2022-09-10T10:22:59.234Z,16268.00
2022-09-10T10:23:59.195Z,17376.00
2022-09-10T10:25:00.007Z,18912.00
2022-09-10T10:25:59.268Z,20640.00
2022-09-10T10:26:59.574Z,22272.00
2022-09-10T10:27:59.977Z,23488.00
2022-09-10T10:28:59.174Z,24224.00
2022-09-10T10:30:00.037Z,24704.00
2022-09-10T10:30:59.217Z,24896.00
2022-09-10T10:32:01.585Z,24960.00
2022-09-10T10:33:00.374Z,24864.00
2022-09-10T10:33:59.158Z,24960.00
2022-09-10T10:34:59.155Z,25216.00
2022-09-10T10:35:59.244Z,25728.00
2022-09-10T10:36:59.217Z,26272.00
2022-09-10T10:37:59.115Z,26912.00
2022-09-10T10:38:59.101Z,27424.00
2022-09-10T10:39:59.883Z,27968.00
2022-09-10T10:40:59.752Z,28480.00
2022-09-10T10:41:59.940Z,28864.00
2022-09-10T10:42:59.875Z,29056.00
2022-09-10T10:43:59.483Z,29824.00
2022-09-10T10:44:59.012Z,30624.00
2022-09-10T10:45:58.912Z,31232.00
2022-09-10T10:46:59.738Z,31456.00
2022-09-10T10:47:58.914Z,31488.00
2022-09-10T10:49:03.702Z,31552.00
2022-09-10T10:49:59.661Z,31648.00
2022-09-10T10:50:59.816Z,31552.00
2022-09-10T10:51:59.718Z,32000.00
2022-09-10T10:52:59.624Z,33440.00
2022-09-10T10:53:59.528Z,34272.00
2022-09-10T10:54:58.807Z,35616.00
2022-09-10T10:55:59.291Z,37120.00
2022-09-10T10:56:59.514Z,38848.00
2022-09-10T10:57:59.650Z,40032.00
2022-09-10T10:58:59.440Z,40608.00
2022-09-10T10:59:58.690Z,40928.00
2022-09-10T11:00:59.641Z,41376.00
2022-09-10T11:01:59.076Z,42240.00
2022-09-10T11:02:59.431Z,44064.00
2022-09-10T11:03:58.632Z,45760.00
2022-09-10T11:04:58.713Z,48384.00
2022-09-10T11:05:59.451Z,50496.00
2022-09-10T11:06:58.701Z,50816.00
2022-09-10T11:07:59.480Z,45696.00
2022-09-10T11:08:59.841Z,46848.00
2022-09-10T11:09:59.601Z,47168.00
2022-09-10T11:10:59.436Z,50048.00
2022-09-10T11:11:59.104Z,51264.00
2022-09-10T11:12:59.616Z,51488.00
2022-09-10T11:13:59.458Z,50912.00
2022-09-10T11:14:59.348Z,46144.00
2022-09-10T11:15:59.652Z,37536.00
2022-09-10T11:16:59.096Z,35904.00
2022-09-10T11:17:58.560Z,35776.00
2022-09-10T11:18:58.429Z,35072.00
2022-09-10T11:20:17.659Z,32960.00
2022-09-10T11:20:59.419Z,33600.00
2022-09-10T11:21:58.371Z,38784.00
2022-09-10T11:22:59.304Z,42304.00
2022-09-10T11:23:58.366Z,40768.00
2022-09-10T11:24:59.114Z,43616.00
2022-09-10T11:25:59.277Z,45984.00
2022-09-10T11:26:59.172Z,46944.00
2022-09-10T11:27:58.911Z,58592.00
2022-09-10T11:28:59.249Z,44864.00
2022-09-10T11:29:59.169Z,40832.00
2022-09-10T11:30:58.307Z,41344.00
2022-09-10T11:31:59.206Z,40288.00
2022-09-10T11:32:59.117Z,46528.00
2022-09-10T11:33:58.218Z,35968.00
2022-09-10T11:34:59.179Z,34016.00
2022-09-10T11:35:59.081Z,32320.00
2022-09-10T11:36:58.176Z,30848.00
2022-09-10T11:37:59.145Z,29088.00
2022-09-10T11:38:59.048Z,28096.00
2022-09-10T11:39:58.168Z,27776.00
2022-09-10T11:40:58.147Z,28768.00
2022-09-10T11:41:59.060Z,28832.00
2022-09-10T11:42:58.918Z,30176.00
2022-09-10T11:43:58.099Z,31520.00
2022-09-10T11:44:58.985Z,33280.00
2022-09-10T11:45:58.096Z,36608.00
2022-09-10T11:46:58.795Z,38272.00
2022-09-10T11:47:58.960Z,39904.00
2022-09-10T11:48:58.850Z,45728.00
2022-09-10T11:49:58.762Z,47200.00
2022-09-10T11:50:57.980Z,45280.00
2022-09-10T11:51:58.825Z,42080.00
2022-09-10T11:52:57.998Z,43616.00
2022-09-10T11:53:58.885Z,49696.00
2022-09-10T11:54:58.785Z,47392.00
2022-09-10T11:55:58.694Z,49952.00
2022-09-10T11:56:57.971Z,57888.00
2022-09-10T11:57:58.758Z,82944.00
2022-09-10T11:58:57.914Z,93856.00
2022-09-10T11:59:58.379Z,87424.00
2022-09-10T12:00:57.893Z,87104.00
2022-09-10T12:01:57.862Z,82912.00
2022-09-10T12:02:58.798Z,83456.00
2022-09-10T12:03:58.002Z,84416.00
2022-09-10T12:04:58.624Z,88352.00
2022-09-10T12:05:57.889Z,86112.00
2022-09-10T12:06:57.888Z,88608.00
2022-09-10T12:07:57.755Z,89920.00
2022-09-10T12:08:58.729Z,90080.00
2022-09-10T12:09:57.742Z,87808.00
2022-09-10T12:10:58.533Z,87168.00
2022-09-10T12:11:58.733Z,85568.00
2022-09-10T12:12:57.734Z,90176.00
2022-09-10T12:13:57.691Z,93376.00
2022-09-10T12:14:57.783Z,93568.00
2022-09-10T12:15:57.882Z,90976.00
2022-09-10T12:16:57.624Z,87904.00
2022-09-10T12:17:57.891Z,86080.00
2022-09-10T12:18:57.742Z,87776.00
2022-09-10T12:19:57.621Z,87072.00
2022-09-10T12:20:57.586Z,88416.00
2022-09-10T12:21:57.556Z,88224.00
2022-09-10T12:22:57.559Z,91776.00
2022-09-10T12:23:58.310Z,42272.00
2022-09-10T12:24:58.468Z,67392.00
2022-09-10T12:25:57.547Z,85440.00
2022-09-10T12:26:57.508Z,85280.00
2022-09-10T12:27:57.490Z,82816.00
2022-09-10T12:28:57.529Z,85024.00
2022-09-10T12:29:58.930Z,83616.00
2022-09-10T12:30:57.624Z,19168.00
2022-09-10T12:31:57.433Z,21472.00
2022-09-10T12:32:58.213Z,79488.00
2022-09-10T12:33:58.376Z,80832.00
2022-09-10T12:34:58.316Z,82368.00
2022-09-10T12:35:57.414Z,85024.00
2022-09-10T12:36:57.397Z,25056.00
2022-09-10T12:37:57.364Z,76224.00
2022-09-10T12:38:58.146Z,72512.00
2022-09-10T12:39:58.332Z,74336.00
2022-09-10T12:40:57.761Z,76896.00
2022-09-10T12:41:58.118Z,25344.00
2022-09-10T12:42:58.275Z,80288.00
2022-09-10T12:43:58.197Z,75168.00
2022-09-10T12:44:58.089Z,79776.00
2022-09-10T12:45:58.262Z,77088.00
2022-09-10T12:46:57.489Z,66560.00
2022-09-10T12:47:57.502Z,24224.00
2022-09-10T12:48:57.499Z,33312.00
2022-09-10T12:49:57.460Z,26720.00
2022-09-10T12:50:57.422Z,80576.00
2022-09-10T12:51:58.179Z,66240.00
2022-09-10T12:52:58.086Z,74048.00
2022-09-10T12:53:57.990Z,32480.00
2022-09-10T12:54:57.892Z,36096.00
2022-09-10T12:55:57.111Z,60256.00
2022-09-10T12:56:57.962Z,71712.00
2022-09-10T12:57:57.865Z,75520.00
2022-09-10T12:58:57.090Z,76000.00
2022-09-10T12:59:57.925Z,77632.00
2022-09-10T13:00:57.528Z,66688.00
2022-09-10T13:01:58.060Z,74144.00
2022-09-10T13:02:57.895Z,82592.00
2022-09-10T13:03:57.810Z,55200.00
2022-09-10T13:04:57.965Z,22432.00
2022-09-10T13:05:57.878Z,17536.00
2022-09-10T13:06:57.767Z,15380.00
2022-09-10T13:07:57.018Z,13900.00
2022-09-10T13:08:57.829Z,13624.00
2022-09-10T13:09:56.920Z,13632.00
2022-09-10T13:10:57.121Z,13176.00
2022-09-10T13:11:56.910Z,12968.00
2022-09-10T13:12:57.700Z,13128.00
2022-09-10T13:14:00.313Z,13608.00
2022-09-10T13:14:56.852Z,14300.00
2022-09-10T13:15:56.867Z,15208.00
2022-09-10T13:16:56.863Z,16368.00
2022-09-10T13:17:57.734Z,17696.00
2022-09-10T13:18:57.200Z,18688.00
2022-09-10T13:19:57.605Z,19648.00
2022-09-10T13:20:57.474Z,20384.00
2022-09-10T13:21:56.833Z,21152.00
2022-09-10T13:22:57.529Z,21440.00
2022-09-10T13:23:57.480Z,21184.00
2022-09-10T13:24:56.715Z,20544.00
2022-09-10T13:25:56.699Z,21248.00
2022-09-10T13:26:57.668Z,25728.00
2022-09-10T13:27:57.546Z,18784.00
2022-09-10T13:28:57.448Z,15040.00
2022-09-10T13:29:56.648Z,13508.00
2022-09-10T13:30:57.557Z,12664.00
2022-09-10T13:31:57.008Z,12132.00
2022-09-10T13:32:57.605Z,11780.00
2022-09-10T13:33:56.650Z,11424.00
2022-09-10T13:34:57.383Z,11160.00
2022-09-10T13:35:56.560Z,10812.00
2022-09-10T13:36:57.461Z,10428.00
2022-09-10T13:37:57.353Z,10000.00
2022-09-10T13:39:00.856Z,9780.00
2022-09-10T13:39:58.467Z,9764.00
2022-09-10T13:40:56.493Z,9812.00
2022-09-10T13:41:57.484Z,10064.00
2022-09-10T13:42:56.466Z,10388.00
2022-09-10T13:44:00.584Z,10544.00
2022-09-10T13:44:56.458Z,10588.00
2022-09-10T13:45:56.449Z,10672.00
2022-09-10T13:46:56.424Z,10928.00
2022-09-10T13:47:56.386Z,11232.00
2022-09-10T13:48:57.316Z,11656.00
2022-09-10T13:49:56.401Z,11968.00
2022-09-10T13:50:56.358Z,12076.00
2022-09-10T13:51:56.357Z,12180.00
2022-09-10T13:52:57.219Z,12108.00
2022-09-10T13:53:57.098Z,12184.00
2022-09-10T13:54:57.288Z,12140.00
2022-09-10T13:55:57.198Z,12288.00
2022-09-10T13:56:57.058Z,12460.00
2022-09-10T13:57:56.269Z,12724.00
2022-09-10T13:58:57.156Z,12944.00
2022-09-10T13:59:56.229Z,13224.00
2022-09-10T14:00:57.190Z,13600.00
2022-09-10T14:01:56.249Z,14116.00
2022-09-10T14:02:56.247Z,14596.00
2022-09-10T14:03:57.161Z,15004.00
2022-09-10T14:04:56.201Z,15228.00
2022-09-10T14:05:56.972Z,15276.00
2022-09-10T14:06:57.125Z,15356.00
2022-09-10T14:07:56.133Z,15504.00
2022-09-10T14:08:56.120Z,15748.00
2022-09-10T14:09:56.084Z,16068.00
2022-09-10T14:10:56.995Z,16412.00
2022-09-10T14:11:58.037Z,16864.00
2022-09-10T14:12:56.804Z,17184.00
2022-09-10T14:13:56.964Z,17472.00
2022-09-10T14:14:56.875Z,17792.00
2022-09-10T14:15:56.847Z,18048.00
2022-09-10T14:16:56.936Z,18304.00
2022-09-10T14:17:56.838Z,18560.00
2022-09-10T14:18:57.442Z,18848.00
2022-09-10T14:19:56.897Z,19200.00
2022-09-10T14:20:55.950Z,19520.00
2022-09-10T14:21:56.447Z,19840.00
2022-09-10T14:22:55.939Z,20192.00
2022-09-10T14:23:57.410Z,20768.00
2022-09-10T14:24:56.682Z,21408.00
2022-09-10T14:25:56.840Z,22208.00
2022-09-10T14:26:55.862Z,22912.00
2022-09-10T14:27:56.641Z,23456.00
2022-09-10T14:28:56.817Z,23936.00
2022-09-10T14:29:55.953Z,24320.00
2022-09-10T14:30:56.651Z,24448.00
2022-09-10T14:31:56.773Z,24480.00
2022-09-10T14:32:56.675Z,24352.00
2022-09-10T14:33:56.583Z,24224.00
2022-09-10T14:34:56.191Z,23840.00
2022-09-10T14:35:56.644Z,23584.00
2022-09-10T14:36:56.551Z,23232.00
2022-09-10T14:37:56.727Z,22592.00
2022-09-10T14:38:55.678Z,21792.00
2022-09-10T14:39:55.687Z,21056.00
2022-09-10T14:40:55.675Z,20512.00
2022-09-10T14:41:56.585Z,20192.00
2022-09-10T14:42:56.517Z,19904.00
2022-09-10T14:43:55.607Z,19808.00
2022-09-10T14:44:55.596Z,19872.00
2022-09-10T14:45:56.486Z,20000.00
2022-09-10T14:46:55.576Z,20064.00
2022-09-10T14:47:55.585Z,20096.00
2022-09-10T14:48:55.538Z,20224.00
2022-09-10T14:49:56.328Z,20480.00
2022-09-10T14:50:56.488Z,20832.00
2022-09-10T14:51:56.390Z,21152.00
2022-09-10T14:52:56.290Z,21504.00
2022-09-10T14:53:56.423Z,21760.00
2022-09-10T14:54:55.471Z,21888.00
2022-09-10T14:55:55.450Z,21856.00
2022-09-10T14:56:56.431Z,21728.00
2022-09-10T14:57:56.331Z,21632.00
2022-09-10T14:58:56.232Z,21728.00
2022-09-10T14:59:57.301Z,22112.00
2022-09-10T15:00:55.383Z,22944.00
2022-09-10T15:01:56.201Z,24160.00
2022-09-10T15:02:55.374Z,25120.00
2022-09-10T15:03:56.264Z,25728.00
2022-09-10T15:04:55.375Z,26112.00
2022-09-10T15:05:55.691Z,26304.00
2022-09-10T15:06:55.288Z,25984.00
2022-09-10T15:07:55.295Z,24992.00
2022-09-10T15:08:55.252Z,22976.00
2022-09-10T15:09:55.256Z,21504.00
2022-09-10T15:10:55.236Z,20672.00
2022-09-10T15:11:56.009Z,20128.00
2022-09-10T15:12:56.170Z,20384.00
2022-09-10T15:13:55.234Z,20608.00
2022-09-10T15:14:55.189Z,20832.00
2022-09-10T15:15:55.209Z,21216.00
2022-09-10T15:16:55.139Z,21792.00
2022-09-10T15:17:55.130Z,22400.00
2022-09-10T15:18:56.100Z,22976.00
2022-09-10T15:19:55.153Z,23040.00
2022-09-10T15:20:55.910Z,23136.00
2022-09-10T15:21:55.070Z,23104.00
2022-09-10T15:22:55.082Z,22848.00
2022-09-10T15:23:55.203Z,22720.00
2022-09-10T15:25:11.466Z,22528.00
2022-09-10T15:25:56.034Z,22304.00
2022-09-10T15:26:55.197Z,22208.00
2022-09-10T15:27:55.014Z,22336.00
2022-09-10T15:28:55.135Z,22432.00
2022-09-10T15:29:55.816Z,22464.00
2022-09-10T15:30:55.839Z,22688.00
2022-09-10T15:31:54.976Z,22752.00
2022-09-10T15:32:54.936Z,22752.00
2022-09-10T15:33:55.688Z,22592.00
2022-09-10T15:34:54.916Z,22240.00
2022-09-10T15:35:55.758Z,21824.00
2022-09-10T15:36:54.928Z,20960.00
2022-09-10T15:37:54.949Z,20192.00
2022-09-10T15:38:54.919Z,19392.00
2022-09-10T15:39:55.672Z,18656.00
2022-09-10T15:40:55.779Z,18112.00
2022-09-10T15:41:54.822Z,17760.00
2022-09-10T15:42:55.596Z,17376.00
2022-09-10T15:43:55.754Z,16528.00
2022-09-10T15:44:55.654Z,16556.00
2022-09-10T15:45:55.555Z,16176.00
2022-09-10T15:46:54.807Z,15768.00
2022-09-10T15:47:55.713Z,15760.00
2022-09-10T15:48:54.695Z,15404.00
2022-09-10T15:49:54.694Z,14596.00
2022-09-10T15:50:55.588Z,14024.00
2022-09-10T15:51:55.494Z,13448.00
2022-09-10T15:52:54.864Z,12916.00
2022-09-10T15:53:54.646Z,12496.00
2022-09-10T15:54:54.695Z,12348.00
2022-09-10T15:55:54.683Z,12256.00
2022-09-10T15:56:54.629Z,12148.00
2022-09-10T15:57:54.617Z,12024.00
2022-09-10T15:58:54.658Z,11884.00
2022-09-10T15:59:54.570Z,11516.00
2022-09-10T16:00:55.399Z,10820.00
2022-09-10T16:01:54.611Z,10084.00
2022-09-10T16:02:54.559Z,9508.00
2022-09-10T16:03:54.539Z,9104.00
2022-09-10T16:04:55.279Z,8840.00
2022-09-10T16:05:54.481Z,8596.00
2022-09-10T16:06:54.451Z,8328.00
2022-09-10T16:07:55.245Z,8192.00
2022-09-10T16:08:54.495Z,7712.00
2022-09-10T16:09:55.412Z,7408.00
2022-09-10T16:10:54.411Z,7140.00
2022-09-10T16:11:54.398Z,6876.00
2022-09-10T16:12:54.383Z,6668.00
2022-09-10T16:13:55.175Z,6472.00
2022-09-10T16:14:55.334Z,6248.00
2022-09-10T16:15:54.368Z,5996.00
2022-09-10T16:16:54.343Z,5732.00
2022-09-10T16:17:54.323Z,5460.00
2022-09-10T16:18:55.726Z,5284.00
2022-09-10T16:19:54.275Z,5184.00
2022-09-10T16:20:55.277Z,5148.00
2022-09-10T16:21:54.256Z,5100.00
2022-09-10T16:22:55.079Z,5068.00
2022-09-10T16:23:55.236Z,5104.00
2022-09-10T16:24:54.556Z,5188.00
2022-09-10T16:25:54.509Z,5336.00
2022-09-10T16:26:54.166Z,5516.00
2022-09-10T16:27:55.108Z,5696.00
2022-09-10T16:28:54.520Z,5860.00
2022-09-10T16:29:54.173Z,5972.00
2022-09-10T16:30:54.244Z,6048.00
2022-09-10T16:31:54.981Z,6092.00
2022-09-10T16:32:54.880Z,6148.00
2022-09-10T16:33:55.369Z,6184.00
2022-09-10T16:34:54.061Z,6204.00
2022-09-10T16:35:54.085Z,6300.00
2022-09-10T16:36:54.217Z,6424.00
2022-09-10T16:37:54.012Z,6632.00
2022-09-10T16:38:54.275Z,6904.00
2022-09-10T16:39:54.065Z,7084.00
2022-09-10T16:40:54.884Z,7204.00
2022-09-10T16:41:54.504Z,7264.00
2022-09-10T16:42:54.953Z,7460.00
2022-09-10T16:43:54.856Z,7632.00
2022-09-10T16:44:53.922Z,7728.00
2022-09-10T16:45:53.893Z,7784.00
2022-09-10T16:46:54.825Z,7712.00
2022-09-10T16:47:54.727Z,7428.00
2022-09-10T16:48:53.869Z,7180.00
2022-09-10T16:49:53.858Z,7056.00
2022-09-10T16:50:53.839Z,7024.00
2022-09-10T16:51:53.829Z,6932.00
2022-09-10T16:52:53.807Z,6712.00
2022-09-10T16:53:54.660Z,6396.00
2022-09-10T16:54:53.789Z,6120.00
2022-09-10T16:55:53.785Z,5916.00
2022-09-10T16:56:54.527Z,5736.00
2022-09-10T16:57:54.550Z,5528.00
2022-09-10T16:58:54.551Z,5356.00
2022-09-10T16:59:54.521Z,5240.00
2022-09-10T17:00:54.493Z,5144.00
2022-09-10T17:01:54.613Z,5064.00
2022-09-10T17:02:54.602Z,4956.00
2022-09-10T17:03:54.058Z,4860.00
2022-09-10T17:05:03.045Z,4780.00
2022-09-10T17:05:53.735Z,4644.00
2022-09-10T17:06:54.870Z,4456.00
2022-09-10T17:07:57.994Z,4264.00
2022-09-10T17:08:54.284Z,4024.00
2022-09-10T17:09:58.718Z,3776.00
2022-09-10T17:10:54.783Z,3520.00
2022-09-10T17:12:24.847Z,3272.00
2022-09-10T17:12:57.897Z,3032.00
2022-09-10T17:13:56.520Z,2820.00
2022-09-10T17:14:54.324Z,2620.00
2022-09-10T17:15:58.128Z,2452.00
2022-09-10T17:16:56.708Z,2304.00
2022-09-10T17:18:03.609Z,2196.00
2022-09-10T17:32:19.221Z,1300.00
2022-09-10T17:32:38.858Z,1208.00
2022-09-10T17:33:37.144Z,1120.00
2022-09-10T17:34:38.892Z,1040.00
2022-09-10T17:35:31.191Z,964.00
2022-09-10T17:36:32.103Z,888.00
2022-09-10T17:37:31.203Z,828.00
2022-09-10T17:38:32.190Z,776.00
2022-09-10T17:39:31.215Z,720.00
2022-09-10T17:40:32.641Z,664.00
2022-09-10T17:41:31.881Z,616.00
2022-09-10T17:42:32.042Z,572.00
2022-09-10T17:43:31.129Z,532.00
2022-09-10T17:44:31.284Z,492.00
2022-09-10T17:45:32.015Z,452.00
2022-09-10T17:46:31.931Z,412.00
2022-09-10T17:47:31.829Z,372.00
2022-09-10T17:48:31.975Z,336.00
2022-09-10T17:49:32.976Z,300.00
2022-09-10T17:50:31.008Z,268.00
2022-09-10T17:51:30.998Z,248.00
2022-09-10T17:52:31.847Z,220.00
2022-09-10T17:53:31.847Z,192.00
2022-09-10T17:54:31.917Z,172.00
2022-09-10T17:55:33.745Z,156.00
2022-09-10T17:56:31.046Z,136.00
2022-09-10T17:57:31.878Z,120.00
2022-09-10T17:58:30.912Z,104.00
2022-09-10T17:59:30.949Z,88.00
2022-09-10T18:00:30.951Z,76.00
2022-09-10T18:01:31.044Z,64.00
2022-09-10T18:02:30.980Z,56.00
2022-09-10T18:03:31.835Z,48.00
2022-09-10T18:04:30.931Z,44.00
2022-09-10T18:05:30.853Z,36.00
2022-09-10T18:06:30.806Z,28.00
2022-09-10T18:07:31.687Z,24.00
2022-09-10T18:08:30.837Z,20.00
2022-09-10T18:09:30.802Z,16.00
2022-09-10T18:10:30.773Z,12.00
2022-09-10T18:11:30.820Z,12.00
2022-09-10T18:12:30.864Z,8.00
2022-09-10T18:13:31.689Z,12.00
2022-09-10T18:14:30.785Z,8.00
2022-09-10T18:15:31.433Z,8.00
2022-09-10T18:16:31.593Z,8.00
2022-09-10T18:17:30.730Z,4.00
2022-09-10T18:18:30.695Z,4.00
2022-09-10T18:19:31.636Z,4.00
2022-09-10T18:20:30.634Z,4.00
2022-09-10T18:21:30.628Z,0.00
2022-09-10T18:22:30.566Z,4.00
2022-09-10T18:23:30.628Z,4.00
2022-09-10T18:24:31.336Z,0.00
2022-09-10T18:25:31.585Z,0.00
2022-09-10T18:26:31.405Z,0.00
2022-09-10T18:27:30.548Z,0.00
2022-09-10T18:28:31.927Z,0.00
2022-09-10T18:29:30.523Z,0.00
2022-09-10T18:30:31.268Z,0.00
2022-09-10T18:31:30.668Z,0.00
2022-09-10T18:32:30.458Z,0.00
2022-09-10T18:33:30.555Z,0.00
2022-09-10T18:34:30.558Z,0.00
2022-09-10T18:35:30.438Z,0.00
2022-09-10T18:36:30.523Z,0.00
2022-09-10T18:37:30.415Z,0.00
2022-09-10T18:38:30.420Z,0.00
2022-09-10T18:39:31.202Z,0.00
2022-09-10T18:40:31.081Z,0.00
2022-09-10T18:41:30.315Z,0.00
2022-09-10T18:42:30.307Z,0.00
2022-09-10T18:43:30.302Z,0.00
2022-09-10T18:44:30.331Z,0.00
2022-09-10T18:45:30.533Z,0.00
2022-09-10T18:46:30.356Z,0.00
2022-09-10T18:47:43.966Z,0.00
2022-09-10T18:48:31.219Z,0.00
2022-09-10T18:49:30.250Z,0.00
2022-09-10T18:50:30.202Z,0.00
2022-09-10T18:51:31.042Z,0.00
2022-09-10T18:52:30.202Z,0.00
2022-09-10T18:53:31.113Z,0.00
2022-09-10T18:54:30.512Z,0.00
2022-09-10T18:55:31.005Z,0.00
2022-09-10T18:56:30.126Z,0.00
2022-09-10T18:57:30.117Z,0.00
2022-09-10T18:58:30.147Z,0.00
2022-09-10T18:59:31.058Z,0.00
2022-09-10T19:00:30.082Z,0.00
2022-09-10T19:01:30.158Z,0.00
2022-09-10T19:02:30.134Z,0.00
2022-09-10T19:03:30.000Z,0.00
2022-09-10T19:04:30.016Z,0.00
2022-09-10T19:05:30.587Z,0.00
2022-09-10T19:06:30.056Z,0.00
2022-09-10T19:07:30.505Z,0.00
2022-09-10T19:08:29.935Z,0.00
2022-09-10T19:09:30.925Z,0.00
2022-09-10T19:10:29.923Z,0.00
2022-09-10T19:11:29.881Z,0.00
2022-09-10T19:12:29.870Z,0.00
2022-09-10T19:13:29.831Z,0.00
2022-09-10T19:14:30.700Z,0.00
2022-09-10T19:15:29.798Z,0.00
2022-09-10T19:16:29.807Z,0.00
2022-09-10T19:17:29.935Z,0.00
2022-09-10T19:18:29.802Z,0.00
2022-09-10T19:19:30.673Z,0.00
2022-09-10T19:20:29.733Z,0.00
2022-09-10T19:21:30.473Z,0.00
2022-09-10T19:22:30.643Z,0.00
2022-09-10T19:23:29.686Z,0.00
2022-09-10T19:24:50.851Z,0.00
2022-09-10T19:25:31.706Z,0.00
2022-09-10T19:26:30.232Z,0.00
2022-09-10T19:27:29.605Z,0.00
2022-09-10T19:28:30.569Z,0.00
2022-09-10T19:29:29.597Z,0.00
2022-09-10T19:30:33.762Z,0.00
2022-09-10T19:31:30.627Z,0.00
2022-09-10T19:32:30.041Z,0.00
2022-09-10T19:33:29.676Z,0.00
2022-09-10T19:34:29.738Z,0.00
2022-09-10T19:35:30.448Z,0.00
2022-09-10T19:36:30.332Z,0.00
2022-09-10T19:37:30.486Z,0.00
2022-09-10T19:38:37.475Z,0.00
2022-09-10T19:39:30.491Z,0.00
2022-09-10T19:40:30.212Z,0.00
2022-09-10T19:41:30.341Z,0.00
2022-09-10T19:42:30.259Z,0.00
2022-09-10T19:43:29.376Z,0.00
2022-09-10T19:44:29.493Z,0.00
2022-09-10T19:45:30.213Z,0.00
2022-09-10T19:46:30.156Z,0.00
2022-09-10T19:47:30.283Z,0.00
2022-09-10T19:48:30.182Z,0.00
2022-09-10T19:49:30.082Z,0.00
2022-09-10T19:50:30.252Z,0.00
2022-09-10T19:51:30.144Z,0.00
2022-09-10T19:52:30.054Z,0.00
2022-09-10T19:53:29.239Z,0.00
2022-09-10T19:54:30.115Z,0.00
2022-09-10T19:55:30.035Z,0.00
2022-09-10T19:56:30.186Z,0.00
2022-09-10T19:57:29.197Z,0.00
2022-09-10T19:58:29.259Z,0.00
2022-09-10T19:59:30.154Z,0.00
2022-09-10T20:00:46.401Z,0.00
2022-09-10T20:01:31.019Z,0.00
2022-09-10T20:02:30.156Z,0.00
2022-09-10T20:03:29.087Z,0.00
2022-09-10T20:04:29.145Z,0.00
2022-09-10T20:05:29.868Z,0.00
2022-09-10T20:06:29.988Z,0.00
2022-09-10T20:07:29.375Z,0.00
2022-09-10T20:08:29.119Z,0.00
2022-09-10T20:09:29.960Z,0.00
2022-09-10T20:10:29.012Z,0.00
2022-09-10T20:11:29.252Z,0.00
2022-09-10T20:12:29.936Z,0.00
2022-09-10T20:13:28.991Z,0.00
2022-09-10T20:14:29.732Z,0.00
2022-09-10T20:15:29.099Z,0.00
2022-09-10T20:16:29.148Z,0.00
2022-09-10T20:17:29.700Z,0.00
2022-09-10T20:18:29.215Z,0.00